Huvudsida
METAR-TAF:

METAR-TAF

Flygplatser :

Amman Civil Airport

Amman, Jordanien

latitud: 31-59N, longitud: 035-59E, höjd: 767 m

Aktuellt väderrapport

Denna rapport gjordes för 56 minuter sedan, klockan 09:00 UTC
Vind 13 kt från väst
Temperatur 28°C
Fuktighet 45%
Tryck 1010 hPa
Sikt: 5000 m
Få moln på en höjd av 3000 ft
torrdis

METAR: OJAM 190900Z 28013KT 5000 HZ FEW030 28/15 Q1010 NOSIG

Tid: 12:56 (09:56 UTC)

Väderprognos

Denna rapport gjordes för 5 timmar och 48 minuter sedan, klockan 04:08 UTC
Prognos gäller från 19 kl. 06 UTC till 20 kl. 12 UTC
Vind 12 kt från nordväst
Sikt: 5000 m
Få moln på en höjd av 3000 ft
torrdis
Temporärt
från 19 kl. 18 UTC till 20 kl. 03 UTC
Sikt: 7000 m

TAF: OJAM 190408Z 1906/2012 32012KT 5000 HZ FEW030 TEMPO 1918/2003 7000

Aktuella väderrapporter och prognoser från 4000 flygplatser (METAR- och TAF-rapporter).

De tillgängliga stationerna syns som gula och röda prickar på kartan.

För musen över prickarna för att se namnen på stationerna.

Klicka sedan för att få väderrapporter och prognoser.

För att ändra kartan: Klicka på de gröna knapparna med ett svart kors på för att zooma in; den gröna knappen med ett streck på för att zooma ut; eller på de gröna pilarna för angränsande kartor.


METAR-TAF: